createdAt,value
2022-08-17T00:02:25.851Z,19.21
2022-08-17T00:04:55.129Z,19.28
2022-08-17T00:07:22.563Z,19.29
2022-08-17T00:09:49.276Z,19.29
2022-08-17T00:12:41.653Z,19.15
2022-08-17T00:15:05.020Z,18.94
2022-08-17T00:17:31.667Z,18.77
2022-08-17T00:19:58.340Z,18.93
2022-08-17T00:22:34.267Z,19.10
2022-08-17T00:25:07.298Z,19.11
2022-08-17T00:27:34.657Z,19.15
2022-08-17T00:30:01.421Z,19.22
2022-08-17T00:33:22.893Z,18.99
2022-08-17T00:35:19.212Z,19.14
2022-08-17T00:37:45.899Z,19.17
2022-08-17T00:40:15.050Z,19.14
2022-08-17T00:42:43.310Z,18.78
2022-08-17T00:45:12.660Z,18.77
2022-08-17T00:47:40.180Z,18.77
2022-08-17T00:50:09.861Z,18.93
2022-08-17T00:52:43.428Z,18.90
2022-08-17T00:55:11.060Z,19.03
2022-08-17T00:57:44.933Z,19.05
2022-08-17T01:00:28.324Z,19.09
2022-08-17T01:03:02.289Z,18.98
2022-08-17T01:05:31.421Z,18.81
2022-08-17T01:08:01.131Z,18.56
2022-08-17T01:10:58.657Z,18.58
2022-08-17T01:13:24.787Z,18.52
2022-08-17T01:15:59.065Z,18.29
2022-08-17T01:18:27.376Z,18.51
2022-08-17T01:20:56.120Z,18.51
2022-08-17T01:23:25.103Z,18.46
2022-08-17T01:25:54.931Z,18.44
2022-08-17T01:28:52.581Z,18.37
2022-08-17T01:31:12.053Z,18.45
2022-08-17T01:33:38.833Z,18.30
2022-08-17T01:36:07.236Z,18.35
2022-08-17T01:38:38.631Z,18.28
2022-08-17T01:41:12.250Z,18.06
2022-08-17T01:44:13.643Z,18.25
2022-08-17T01:46:40.281Z,18.36
2022-08-17T01:49:10.657Z,18.45
2022-08-17T01:51:38.104Z,18.50
2022-08-17T01:54:10.097Z,18.37
2022-08-17T01:56:41.424Z,18.36
2022-08-17T01:59:10.001Z,18.22
2022-08-17T02:01:37.895Z,18.35
2022-08-17T02:04:06.727Z,18.09
2022-08-17T02:06:52.642Z,18.24
2022-08-17T02:09:25.369Z,18.04
2022-08-17T02:11:55.002Z,17.55
2022-08-17T02:14:24.034Z,18.03
2022-08-17T02:16:50.948Z,17.98
2022-08-17T02:19:17.704Z,17.69
2022-08-17T02:21:47.692Z,17.90
2022-08-17T02:24:59.360Z,18.05
2022-08-17T02:27:13.490Z,17.22
2022-08-17T02:29:40.153Z,17.70
2022-08-17T02:32:07.120Z,17.34
2022-08-17T02:34:33.873Z,17.62
2022-08-17T02:37:00.530Z,17.20
2022-08-17T02:39:27.304Z,17.71
2022-08-17T02:42:03.429Z,17.75
2022-08-17T02:44:38.763Z,17.57
2022-08-17T02:47:08.684Z,17.51
2022-08-17T02:49:54.446Z,17.50
2022-08-17T02:52:42.430Z,17.32
2022-08-17T02:55:17.059Z,17.73
2022-08-17T02:57:44.426Z,17.41
2022-08-17T03:00:15.758Z,17.81
2022-08-17T03:02:44.091Z,17.89
2022-08-17T03:05:13.091Z,17.95
2022-08-17T03:07:39.848Z,17.85
2022-08-17T03:10:08.105Z,17.69
2022-08-17T03:12:38.698Z,17.57
2022-08-17T03:15:16.140Z,17.62
2022-08-17T03:17:43.569Z,17.70
2022-08-17T03:20:11.327Z,17.39
2022-08-17T03:22:42.811Z,17.56
2022-08-17T03:25:25.424Z,17.39
2022-08-17T03:27:52.410Z,17.41
2022-08-17T03:30:19.394Z,17.42
2022-08-17T03:32:51.865Z,17.75
2022-08-17T03:35:21.888Z,17.83
2022-08-17T03:37:48.638Z,17.62
2022-08-17T03:40:36.949Z,17.47
2022-08-17T03:43:14.639Z,17.51
2022-08-17T03:46:01.922Z,17.64
2022-08-17T03:48:47.493Z,17.67
2022-08-17T03:51:38.618Z,17.79
2022-08-17T03:54:24.242Z,17.48
2022-08-17T03:57:12.219Z,17.39
2022-08-17T03:59:39.542Z,17.33
2022-08-17T04:02:17.324Z,17.35
2022-08-17T04:04:44.302Z,17.25
2022-08-17T04:07:11.242Z,17.59
2022-08-17T04:09:38.012Z,17.54
2022-08-17T04:12:05.342Z,17.39
2022-08-17T04:14:37.883Z,17.06
2022-08-17T04:17:25.899Z,17.06
2022-08-17T04:19:53.628Z,16.82
2022-08-17T04:22:32.790Z,16.91
2022-08-17T04:25:07.447Z,17.19
2022-08-17T04:27:34.186Z,17.08
2022-08-17T04:30:01.583Z,17.26
2022-08-17T04:33:04.252Z,17.28
2022-08-17T04:35:20.123Z,17.32
2022-08-17T04:37:47.389Z,17.35
2022-08-17T04:40:32.787Z,17.13
2022-08-17T04:43:11.552Z,17.47
2022-08-17T04:45:40.986Z,17.70
2022-08-17T04:48:23.593Z,17.78
2022-08-17T04:51:00.665Z,17.66
2022-08-17T04:53:27.611Z,17.74
2022-08-17T04:55:55.189Z,17.78
2022-08-17T04:58:21.835Z,17.80
2022-08-17T05:00:48.563Z,17.75
2022-08-17T05:03:15.287Z,17.41
2022-08-17T05:05:43.271Z,17.75
2022-08-17T05:08:09.928Z,17.77
2022-08-17T05:10:39.109Z,18.03
2022-08-17T05:13:18.274Z,18.21
2022-08-17T05:15:48.649Z,18.33
2022-08-17T05:18:16.587Z,18.40
2022-08-17T05:20:44.754Z,17.84
2022-08-17T05:23:15.527Z,18.38
2022-08-17T05:25:49.736Z,18.22
2022-08-17T05:28:19.628Z,18.20
2022-08-17T05:30:51.434Z,18.10
2022-08-17T05:33:21.744Z,18.36
2022-08-17T05:35:50.700Z,18.65
2022-08-17T05:38:20.092Z,18.67
2022-08-17T05:40:47.439Z,18.74
2022-08-17T05:43:17.462Z,18.69
2022-08-17T05:46:03.424Z,18.85
2022-08-17T05:48:40.470Z,18.97
2022-08-17T05:51:31.720Z,19.12
2022-08-17T05:54:26.141Z,19.36
2022-08-17T05:56:58.681Z,19.67
2022-08-17T05:59:48.119Z,19.98
2022-08-17T06:03:12.057Z,20.42
2022-08-17T06:06:01.389Z,20.92
2022-08-17T06:08:51.520Z,21.24
2022-08-17T06:11:38.883Z,21.43
2022-08-17T06:14:42.308Z,21.47
2022-08-17T06:17:13.923Z,21.16
2022-08-17T06:19:54.513Z,21.43
2022-08-17T06:22:24.741Z,21.44
2022-08-17T06:24:57.540Z,21.54
2022-08-17T06:27:42.958Z,21.66
2022-08-17T06:30:14.627Z,21.64
2022-08-17T06:32:44.593Z,21.64
2022-08-17T06:35:14.287Z,21.77
2022-08-17T06:37:56.145Z,21.87
2022-08-17T06:40:25.461Z,22.00
2022-08-17T06:43:06.513Z,22.28
2022-08-17T06:45:41.184Z,22.72
2022-08-17T06:48:24.735Z,23.10
2022-08-17T06:51:00.689Z,23.62
2022-08-17T06:53:36.434Z,23.99
2022-08-17T06:56:13.545Z,24.43
2022-08-17T06:58:43.338Z,24.79
2022-08-17T07:01:20.647Z,25.00
2022-08-17T07:04:12.139Z,24.88
2022-08-17T07:06:42.507Z,24.70
2022-08-17T07:09:18.081Z,24.13
2022-08-17T07:11:56.370Z,23.46
2022-08-17T07:14:39.375Z,23.24
2022-08-17T07:17:18.328Z,23.13
2022-08-17T07:19:48.967Z,23.15
2022-08-17T07:22:30.561Z,23.01
2022-08-17T07:25:18.617Z,22.73
2022-08-17T07:27:53.094Z,22.77
2022-08-17T07:30:21.773Z,22.72
2022-08-17T07:32:58.352Z,22.74
2022-08-17T07:35:52.807Z,22.86
2022-08-17T07:38:26.906Z,22.96
2022-08-17T07:41:03.596Z,23.03
2022-08-17T07:43:39.239Z,23.27
2022-08-17T07:46:50.675Z,23.49
2022-08-17T07:49:24.509Z,23.73
2022-08-17T07:51:51.185Z,23.97
2022-08-17T07:54:33.075Z,24.20
2022-08-17T07:57:29.482Z,24.28
2022-08-17T07:59:59.750Z,24.23
2022-08-17T08:02:41.384Z,24.16
2022-08-17T08:05:25.054Z,24.16
2022-08-17T08:08:18.602Z,24.48
2022-08-17T08:11:01.910Z,24.98
2022-08-17T08:13:30.181Z,25.41
2022-08-17T08:16:19.747Z,25.39
2022-08-17T08:18:55.781Z,25.43
2022-08-17T08:21:49.139Z,25.38
2022-08-17T08:24:30.160Z,24.95
2022-08-17T08:27:00.817Z,24.79
2022-08-17T08:29:32.640Z,24.43
2022-08-17T08:32:23.930Z,24.68
2022-08-17T08:35:01.682Z,24.76
2022-08-17T08:37:43.626Z,24.96
2022-08-17T08:40:40.408Z,25.11
2022-08-17T08:43:47.383Z,25.44
2022-08-17T08:46:48.337Z,25.62
2022-08-17T08:49:58.990Z,25.55
2022-08-17T08:52:37.403Z,25.36
2022-08-17T08:55:17.939Z,25.49
2022-08-17T08:57:56.403Z,25.48
2022-08-17T09:00:25.934Z,25.69
2022-08-17T09:03:06.200Z,25.87
2022-08-17T09:05:54.107Z,25.99
2022-08-17T09:08:20.794Z,25.99
2022-08-17T09:10:53.590Z,25.97
2022-08-17T09:13:35.490Z,25.83
2022-08-17T09:16:15.159Z,25.32
2022-08-17T09:19:03.101Z,25.83
2022-08-17T09:21:48.260Z,25.81
2022-08-17T09:24:27.741Z,25.76
2022-08-17T09:27:12.063Z,25.54
2022-08-17T09:29:44.401Z,25.32
2022-08-17T09:32:23.998Z,25.38
2022-08-17T09:34:56.400Z,25.08
2022-08-17T09:37:52.139Z,25.45
2022-08-17T09:40:25.638Z,25.43
2022-08-17T09:43:00.736Z,25.35
2022-08-17T09:45:45.202Z,25.20
2022-08-17T09:48:28.346Z,25.29
2022-08-17T09:51:17.828Z,25.19
2022-08-17T09:53:44.946Z,25.00
2022-08-17T09:56:35.208Z,24.83
2022-08-17T09:59:27.425Z,24.78
2022-08-17T10:02:22.262Z,24.91
2022-08-17T10:04:51.681Z,25.01
2022-08-17T10:07:26.036Z,24.92
2022-08-17T10:10:14.287Z,25.03
2022-08-17T10:12:59.690Z,24.95
2022-08-17T10:15:26.465Z,24.79
2022-08-17T10:18:18.298Z,24.79
2022-08-17T10:21:13.879Z,24.87
2022-08-17T10:24:02.566Z,24.86
2022-08-17T10:26:55.345Z,24.89
2022-08-17T10:29:48.932Z,24.65
2022-08-17T10:32:35.005Z,24.61
2022-08-17T10:35:29.389Z,24.54
2022-08-17T10:38:19.551Z,24.39
2022-08-17T10:41:00.020Z,24.54
2022-08-17T10:44:02.189Z,24.47
2022-08-17T10:46:52.138Z,24.66
2022-08-17T10:49:18.852Z,24.74
2022-08-17T10:51:47.984Z,24.74
2022-08-17T10:54:36.173Z,24.78
2022-08-17T10:57:03.461Z,24.80
2022-08-17T10:59:36.089Z,24.83
2022-08-17T11:02:18.273Z,24.90
2022-08-17T11:05:12.297Z,25.05
2022-08-17T11:07:52.793Z,24.77
2022-08-17T11:10:25.467Z,24.40
2022-08-17T11:13:11.031Z,24.36
2022-08-17T11:15:59.407Z,24.33
2022-08-17T11:19:10.786Z,24.27
2022-08-17T11:21:43.135Z,24.32
2022-08-17T11:24:40.437Z,24.42
2022-08-17T11:27:29.721Z,25.10
2022-08-17T11:30:02.883Z,25.63
2022-08-17T11:32:54.499Z,25.93
2022-08-17T11:35:21.754Z,26.31
2022-08-17T11:38:00.854Z,26.36
2022-08-17T11:40:52.405Z,26.43
2022-08-17T11:43:44.273Z,26.11
2022-08-17T11:46:46.205Z,26.06
2022-08-17T11:50:11.317Z,25.76
2022-08-17T11:52:46.738Z,25.74
2022-08-17T11:55:35.711Z,25.57
2022-08-17T11:58:27.008Z,25.49
2022-08-17T12:01:06.069Z,25.60
2022-08-17T12:03:36.769Z,25.60
2022-08-17T12:06:17.533Z,25.79
2022-08-17T12:08:51.699Z,25.70
2022-08-17T12:11:55.159Z,25.84
2022-08-17T12:15:05.779Z,25.61
2022-08-17T12:17:40.637Z,25.86
2022-08-17T12:20:23.013Z,26.27
2022-08-17T12:23:18.472Z,26.96
2022-08-17T12:25:56.658Z,27.07
2022-08-17T12:28:33.597Z,26.87
2022-08-17T12:31:08.176Z,26.96
2022-08-17T12:33:36.817Z,27.01
2022-08-17T12:36:24.736Z,26.98
2022-08-17T12:39:00.053Z,27.08
2022-08-17T12:41:50.355Z,27.33
2022-08-17T12:44:23.811Z,27.45
2022-08-17T12:46:55.780Z,27.51
2022-08-17T12:49:28.890Z,27.52
2022-08-17T12:52:17.615Z,27.51
2022-08-17T12:55:01.003Z,27.88
2022-08-17T12:57:43.066Z,28.14
2022-08-17T13:00:47.601Z,28.23
2022-08-17T13:03:24.385Z,28.15
2022-08-17T13:06:01.149Z,27.91
2022-08-17T13:08:43.870Z,27.71
2022-08-17T13:11:22.292Z,27.57
2022-08-17T13:13:51.878Z,27.37
2022-08-17T13:16:26.427Z,27.29
2022-08-17T13:19:08.134Z,27.44
2022-08-17T13:21:36.658Z,27.62
2022-08-17T13:24:13.711Z,28.02
2022-08-17T13:26:45.430Z,28.45
2022-08-17T13:29:24.043Z,28.88
2022-08-17T13:32:13.613Z,29.29
2022-08-17T13:35:12.306Z,29.67
2022-08-17T13:37:35.357Z,29.85
2022-08-17T13:40:08.270Z,30.07
2022-08-17T13:42:53.343Z,30.30
2022-08-17T13:45:36.470Z,30.36
2022-08-17T13:48:32.433Z,30.60
2022-08-17T13:50:59.520Z,30.69
2022-08-17T13:53:36.181Z,30.62
2022-08-17T13:56:37.370Z,31.03
2022-08-17T13:59:07.876Z,31.78
2022-08-17T14:01:53.593Z,32.03
2022-08-17T14:04:23.965Z,31.32
2022-08-17T14:07:00.877Z,30.75
2022-08-17T14:09:43.464Z,31.04
2022-08-17T14:12:12.305Z,31.63
2022-08-17T14:14:39.621Z,31.95
2022-08-17T14:17:07.943Z,31.84
2022-08-17T14:19:35.404Z,32.10
2022-08-17T14:22:02.709Z,31.82
2022-08-17T14:24:33.536Z,31.75
2022-08-17T14:27:03.309Z,31.50
2022-08-17T14:29:31.745Z,31.46
2022-08-17T14:32:03.126Z,30.96
2022-08-17T14:34:30.277Z,30.65
2022-08-17T14:36:57.068Z,30.54
2022-08-17T14:39:23.768Z,30.89
2022-08-17T14:41:50.639Z,31.11
2022-08-17T14:44:17.398Z,31.39
2022-08-17T14:46:45.262Z,31.59
2022-08-17T14:49:15.591Z,31.57
2022-08-17T14:51:43.508Z,31.60
2022-08-17T14:54:32.616Z,31.58
2022-08-17T14:57:17.719Z,31.00
2022-08-17T14:59:47.189Z,31.07
2022-08-17T15:02:13.883Z,31.38
2022-08-17T15:04:45.515Z,31.50
2022-08-17T15:07:12.459Z,31.53
2022-08-17T15:09:39.149Z,31.20
2022-08-17T15:12:06.727Z,31.27
2022-08-17T15:14:35.435Z,31.29
2022-08-17T15:17:03.684Z,31.27
2022-08-17T15:19:30.350Z,31.21
2022-08-17T15:21:57.096Z,31.25
2022-08-17T15:24:23.774Z,30.95
2022-08-17T15:26:51.337Z,31.11
2022-08-17T15:29:18.016Z,30.97
2022-08-17T15:31:44.716Z,30.57
2022-08-17T15:34:11.861Z,30.72
2022-08-17T15:36:47.917Z,30.64
2022-08-17T15:39:19.703Z,30.50
2022-08-17T15:41:47.277Z,30.36
2022-08-17T15:44:32.412Z,30.35
2022-08-17T15:47:02.075Z,30.27
2022-08-17T15:49:28.775Z,30.06
2022-08-17T15:51:55.476Z,30.10
2022-08-17T15:54:23.419Z,30.09
2022-08-17T15:56:50.944Z,30.09
2022-08-17T15:59:17.771Z,30.09
2022-08-17T16:03:14.560Z,30.18
2022-08-17T16:04:31.777Z,30.21
2022-08-17T16:07:00.210Z,30.16
2022-08-17T16:09:27.551Z,30.14
2022-08-17T16:11:55.901Z,29.73
2022-08-17T16:14:24.604Z,29.91
2022-08-17T16:16:59.189Z,29.89
2022-08-17T16:19:25.823Z,29.82
2022-08-17T16:21:52.537Z,29.73
2022-08-17T16:24:19.166Z,29.67
2022-08-17T16:26:45.852Z,29.56
2022-08-17T16:29:12.517Z,29.39
2022-08-17T16:31:39.311Z,29.27
2022-08-17T16:34:16.753Z,29.08
2022-08-17T16:36:55.583Z,29.10
2022-08-17T16:39:28.959Z,28.85
2022-08-17T16:41:57.438Z,28.97
2022-08-17T16:44:25.642Z,28.74
2022-08-17T16:46:52.407Z,28.75
2022-08-17T16:49:24.395Z,28.52
2022-08-17T16:52:04.019Z,28.74
2022-08-17T16:54:30.743Z,28.69
2022-08-17T16:56:57.446Z,28.67
2022-08-17T16:59:31.195Z,28.28
2022-08-17T17:02:32.063Z,28.60
2022-08-17T17:05:29.738Z,28.56
2022-08-17T17:08:14.348Z,28.47
2022-08-17T17:10:50.057Z,27.84
2022-08-17T17:13:47.030Z,28.31
2022-08-17T17:16:29.195Z,28.21
2022-08-17T17:19:08.203Z,28.13
2022-08-17T17:21:45.881Z,28.07
2022-08-17T17:24:18.512Z,28.03
2022-08-17T17:27:07.548Z,28.04
2022-08-17T17:29:59.404Z,27.97
2022-08-17T17:32:26.044Z,27.92
2022-08-17T17:35:01.115Z,27.86
2022-08-17T17:37:33.818Z,27.66
2022-08-17T17:40:06.635Z,27.44
2022-08-17T17:42:40.616Z,27.45
2022-08-17T17:45:26.547Z,27.32
2022-08-17T17:47:53.523Z,27.40
2022-08-17T17:50:31.928Z,27.30
2022-08-17T17:53:04.096Z,27.20
2022-08-17T17:56:19.628Z,27.08
2022-08-17T17:59:12.810Z,26.43
2022-08-17T18:01:54.326Z,26.51
2022-08-17T18:04:50.767Z,26.34
2022-08-17T18:07:42.185Z,26.21
2022-08-17T18:10:19.512Z,26.10
2022-08-17T18:13:16.776Z,26.34
2022-08-17T18:15:53.989Z,26.36
2022-08-17T18:18:37.808Z,26.32
2022-08-17T18:21:16.115Z,26.20
2022-08-17T18:23:56.921Z,25.98
2022-08-17T18:26:33.156Z,25.88
2022-08-17T18:29:02.464Z,25.85
2022-08-17T18:31:29.591Z,25.84
2022-08-17T18:34:43.702Z,25.37
2022-08-17T18:37:09.080Z,25.68
2022-08-17T18:39:37.214Z,25.58
2022-08-17T18:42:06.788Z,25.62
2022-08-17T18:44:39.781Z,25.57
2022-08-17T18:47:12.131Z,25.52
2022-08-17T18:49:39.660Z,25.41
2022-08-17T18:52:35.882Z,25.27
2022-08-17T18:55:05.543Z,25.35
2022-08-17T18:57:46.644Z,25.16
2022-08-17T19:00:40.937Z,25.08
2022-08-17T19:03:17.968Z,24.89
2022-08-17T19:05:51.673Z,24.72
2022-08-17T19:08:30.468Z,24.75
2022-08-17T19:11:23.882Z,24.75
2022-08-17T19:14:02.866Z,24.68
2022-08-17T19:16:46.248Z,24.53
2022-08-17T19:19:19.543Z,24.38
2022-08-17T19:22:00.238Z,24.35
2022-08-17T19:24:31.398Z,24.38
2022-08-17T19:27:17.894Z,24.31
2022-08-17T19:30:07.787Z,24.31
2022-08-17T19:32:35.708Z,24.14
2022-08-17T19:35:05.847Z,23.91
2022-08-17T19:37:41.484Z,24.02
2022-08-17T19:40:52.228Z,23.99
2022-08-17T19:43:51.226Z,23.96
2022-08-17T19:46:17.856Z,23.93
2022-08-17T19:49:04.143Z,23.84
2022-08-17T19:51:30.846Z,23.78
2022-08-17T19:54:15.935Z,23.80
2022-08-17T19:56:55.366Z,23.84
2022-08-17T19:59:46.131Z,23.82
2022-08-17T20:02:36.959Z,23.68
2022-08-17T20:05:15.729Z,23.44
2022-08-17T20:07:52.543Z,23.25
2022-08-17T20:10:45.085Z,23.28
2022-08-17T20:13:33.575Z,23.14
2022-08-17T20:16:01.620Z,23.14
2022-08-17T20:18:34.156Z,23.18
2022-08-17T20:21:20.348Z,23.12
2022-08-17T20:23:59.524Z,23.18
2022-08-17T20:26:44.424Z,23.14
2022-08-17T20:29:37.182Z,23.12
2022-08-17T20:32:33.021Z,23.11
2022-08-17T20:35:05.816Z,22.90
2022-08-17T20:37:35.126Z,23.00
2022-08-17T20:40:05.681Z,22.91
2022-08-17T20:42:34.408Z,22.79
2022-08-17T20:45:21.521Z,22.26
2022-08-17T20:48:18.615Z,22.58
2022-08-17T20:50:46.874Z,22.56
2022-08-17T20:53:53.347Z,22.43
2022-08-17T20:56:44.729Z,22.33
2022-08-17T20:59:20.602Z,22.28
2022-08-17T21:02:02.697Z,22.24
2022-08-17T21:04:56.402Z,21.58
2022-08-17T21:07:42.716Z,22.27
2022-08-17T21:10:33.920Z,22.32
2022-08-17T21:13:23.505Z,22.39
2022-08-17T21:16:28.238Z,22.28
2022-08-17T21:19:08.472Z,22.17
2022-08-17T21:21:48.992Z,22.06
2022-08-17T21:24:58.375Z,22.06
2022-08-17T21:27:34.146Z,22.10
2022-08-17T21:30:09.011Z,22.01
2022-08-17T21:32:40.492Z,21.90
2022-08-17T21:35:28.447Z,22.07
2022-08-17T21:38:04.294Z,22.19
2022-08-17T21:40:32.901Z,22.14
2022-08-17T21:43:16.877Z,22.20
2022-08-17T21:45:53.741Z,22.30
2022-08-17T21:48:24.451Z,22.14
2022-08-17T21:51:26.091Z,22.42
2022-08-17T21:53:56.376Z,22.50
2022-08-17T21:56:34.971Z,22.51
2022-08-17T21:59:07.895Z,22.42
2022-08-17T22:01:39.270Z,22.28
2022-08-17T22:04:12.208Z,22.06
2022-08-17T22:06:56.452Z,21.77
2022-08-17T22:09:32.023Z,21.81
2022-08-17T22:12:16.640Z,21.75
2022-08-17T22:14:52.246Z,21.80
2022-08-17T22:17:22.366Z,21.83
2022-08-17T22:19:59.555Z,21.93
2022-08-17T22:22:29.247Z,21.80
2022-08-17T22:25:04.095Z,21.78
2022-08-17T22:27:54.905Z,21.71
2022-08-17T22:31:02.160Z,21.61
2022-08-17T22:33:34.440Z,21.47
2022-08-17T22:36:29.695Z,21.42
2022-08-17T22:39:08.701Z,21.47
2022-08-17T22:41:39.117Z,21.51
2022-08-17T22:44:20.738Z,21.27
2022-08-17T22:46:53.132Z,21.37
2022-08-17T22:49:53.804Z,21.04
2022-08-17T22:52:32.250Z,21.13
2022-08-17T22:55:23.537Z,21.02
2022-08-17T22:58:09.279Z,21.17
2022-08-17T23:00:38.732Z,21.25
2022-08-17T23:03:09.145Z,21.34
2022-08-17T23:05:37.727Z,21.33
2022-08-17T23:08:04.483Z,21.49
2022-08-17T23:10:31.851Z,21.35
2022-08-17T23:13:00.244Z,21.57
2022-08-17T23:15:33.097Z,21.63
2022-08-17T23:18:04.550Z,21.57
2022-08-17T23:20:36.656Z,21.92
2022-08-17T23:23:07.642Z,21.93
2022-08-17T23:25:35.722Z,22.06
2022-08-17T23:28:05.645Z,22.16
2022-08-17T23:30:35.904Z,22.30
2022-08-17T23:33:07.388Z,22.46
2022-08-17T23:35:39.784Z,22.53
2022-08-17T23:38:09.849Z,22.59
2022-08-17T23:40:37.794Z,22.70
2022-08-17T23:43:11.491Z,22.69
2022-08-17T23:45:50.434Z,22.79
2022-08-17T23:48:18.166Z,22.67
2022-08-17T23:51:05.788Z,22.67
2022-08-17T23:53:36.192Z,22.83
2022-08-17T23:56:09.386Z,22.66
2022-08-17T23:58:38.376Z,22.72
